Choya, Argentina
Current Conditions -  °F | °C
As of 6:00 PM on Thursday 18 Dec 2014 (Local Time) from SANT Reporting Station
Scattered Clouds Scattered Clouds  
Wind Chill: 79°   Ceiling: Unl
Heat Index: 81°   Visibility: 6mi
Dew Point: 66°   Wind: 9mph
Humidity: 65%   Direction: 230°SW
Pressure: 29.85"   Gusts: NA
Location:  28.5°S, 64.87°W
Report Text: SANT 182100Z 23008KT 9999 SCT035 FEW040TCU 26/19 Q1011
Loading
Personal Weather Stations






























Interactive Weather Map New forecast layout! Learn more

10-Day Weather Forecast

Advertisements
Track Severe Weather on mobile